Time;durP1;ratioP1;P1;durP2;ratioP2;P2;SDS_P1;SDS_P2;PMS_P1;PMS_P2;Temp;Humidity;BMP_temperature;BMP_pressure;BME280_temperature;BME280_humidity;BME280_pressure;Samples;Min_cycle;Max_cycle;Signal;HPM_P1;HPM_P2
2021/03/19 06:00:37;;;;;;;;;;;;;;;;;;5145642;27;20330;-59
2021/03/19 06:03:03;;;;;;;14.00;3.63;;;;;;;;;;5144571;27;19907;-59
2021/03/19 06:05:30;;;;;;;8.90;2.83;;;;;;;;;;5133639;27;20034;-59
2021/03/19 06:08:05;;;;;;;6.18;3.53;;;;;;;;;;5133287;27;20115;-59
2021/03/19 06:10:39;;;;;;;9.02;3.90;;;;;;;;;;5133300;27;20403;-60
2021/03/19 06:13:05;;;;;;;3.63;1.88;;;;;;;;;;5133388;27;20027;-60
2021/03/19 06:15:39;;;;;;;7.80;3.40;;;;;;;;;;5129655;27;20030;-59
2021/03/19 06:18:06;;;;;;;4.80;2.67;;;;;;;;;;5144938;27;20503;-59
2021/03/19 06:20:33;;;;;;;12.27;4.07;;;;;;;;;;5142213;27;20027;-59
2021/03/19 06:23:02;;;;;;;2.25;1.70;;;;;;;;;;5137764;27;20023;-59
2021/03/19 06:25:32;;;;;;;6.30;3.63;;;;;;;;;;5117552;27;20418;-59
2021/03/19 06:27:59;;;;;;;7.45;3.65;;;;;;;;;;5131712;27;20053;-59
2021/03/19 06:30:27;;;;;;;5.75;2.58;;;;;;;;;;5129377;27;20027;-59
2021/03/19 06:33:12;;;;;;;7.38;4.00;;;;;;;;;;5132631;27;20502;-59
2021/03/19 06:35:39;;;;;;;7.50;2.90;;;;;;;;;;5133211;27;20031;-60
2021/03/19 06:38:24;;;;;;;5.47;2.35;;;;;;;;;;5133351;27;20020;-60
2021/03/19 06:40:50;;;;;;;5.40;3.65;;;;;;;;;;5133352;27;20053;-59
2021/03/19 06:43:19;;;;;;;8.38;2.22;;;;;;;;;;5114804;27;20058;-59
2021/03/19 06:45:47;;;;;;;10.10;4.18;;;;;;;;;;5111861;27;20023;-59
2021/03/19 06:48:30;;;;;;;4.07;3.22;;;;;;;;;;5146836;27;20039;-59
2021/03/19 06:50:56;;;;;;;13.40;4.60;;;;;;;;;;5124965;27;20381;-59
2021/03/19 06:53:24;;;;;;;7.43;4.25;;;;;;;;;;5134459;27;20024;-59
2021/03/19 06:55:54;;;;;;;16.02;4.57;;;;;;;;;;5132977;27;20023;-59
2021/03/19 06:58:47;;;;;;;17.95;4.38;;;;;;;;;;5132156;27;20027;-60
2021/03/19 07:01:31;;;;;;;7.40;3.85;;;;;;;;;;5119626;27;20484;-59
2021/03/19 07:04:10;;;;;;;28.40;6.20;;;;;;;;;;5128630;27;20039;-59
2021/03/19 07:06:55;;;;;;;2.83;2.42;;;;;;;;;;5112881;27;20027;-60
2021/03/19 07:09:26;;;;;;;10.20;5.60;;;;;;;;;;5129129;27;20124;-59
2021/03/19 07:12:10;;;;;;;6.72;3.05;;;;;;;;;;5126375;27;20027;-59
2021/03/19 07:14:36;;;;;;;5.65;1.60;;;;;;;;;;5129443;27;20027;-59
2021/03/19 07:17:05;;;;;;;5.82;3.85;;;;;;;;;;5128304;27;20174;-59
2021/03/19 07:19:38;;;;;;;3.13;2.85;;;;;;;;;;5123594;27;20057;-59
2021/03/19 07:22:23;;;;;;;11.95;4.88;;;;;;;;;;5127728;27;20428;-59
2021/03/19 07:24:49;;;;;;;12.10;5.38;;;;;;;;;;5106104;27;20039;-59
2021/03/19 07:27:31;;;;;;;7.10;3.70;;;;;;;;;;5126858;27;20019;-60
2021/03/19 07:29:57;;;;;;;2.47;2.05;;;;;;;;;;5128553;27;20043;-60
2021/03/19 07:32:41;;;;;;;9.93;4.45;;;;;;;;;;5120856;27;20020;-61
2021/03/19 07:35:14;;;;;;;8.32;3.35;;;;;;;;;;5118256;27;20023;-61
2021/03/19 07:37:40;;;;;;;1.85;1.50;;;;;;;;;;5105558;28;20030;-60
2021/03/19 07:40:25;;;;;;;8.48;4.30;;;;;;;;;;5117943;27;20563;-61
2021/03/19 07:43:03;;;;;;;7.63;2.57;;;;;;;;;;5116005;27;20020;-61
2021/03/19 07:45:44;;;;;;;2.05;0.47;;;;;;;;;;5125820;27;20024;-61
2021/03/19 07:48:22;;;;;;;4.45;2.85;;;;;;;;;;5142259;27;20037;-61
2021/03/19 07:51:04;;;;;;;5.75;2.47;;;;;;;;;;5140446;27;20058;-61
2021/03/19 07:53:49;;;;;;;12.02;4.80;;;;;;;;;;5118178;27;20436;-61
2021/03/19 07:56:32;;;;;;;4.17;2.03;;;;;;;;;;5118574;27;20115;-61
2021/03/19 07:59:21;;;;;;;7.78;3.17;;;;;;;;;;5100401;28;20043;-61
2021/03/19 08:01:50;;;;;;;20.83;1.77;;;;;;;;;;5118050;27;20053;-61
2021/03/19 08:04:28;;;;;;;4.88;2.78;;;;;;;;;;5116175;27;20033;-61
2021/03/19 08:06:56;;;;;;;3.88;1.98;;;;;;;;;;5133542;27;20053;-61
2021/03/19 08:09:42;;;;;;;2.75;1.65;;;;;;;;;;5119168;27;20039;-61
2021/03/19 08:12:12;;;;;;;7.40;2.85;;;;;;;;;;5129431;27;20027;-61
2021/03/19 08:14:43;;;;;;;3.55;1.73;;;;;;;;;;5131083;27;20016;-61
2021/03/19 08:17:21;;;;;;;6.07;0.95;;;;;;;;;;5129661;27;20110;-62
2021/03/19 08:20:10;;;;;;;2.55;1.05;;;;;;;;;;5123953;27;20039;-61
2021/03/19 08:22:41;;;;;;;5.60;2.15;;;;;;;;;;5113523;27;20046;-61
2021/03/19 08:25:28;;;;;;;6.65;1.58;;;;;;;;;;5129704;27;20053;-61
2021/03/19 08:28:10;;;;;;;3.92;0.50;;;;;;;;;;5114748;27;20484;-61
2021/03/19 08:30:39;;;;;;;3.30;2.15;;;;;;;;;;5111993;27;20531;-61
2021/03/19 08:33:21;;;;;;;3.90;0.70;;;;;;;;;;5128201;27;20061;-61
2021/03/19 08:36:06;;;;;;;2.40;0.52;;;;;;;;;;5130046;27;20027;-61
2021/03/19 08:38:35;;;;;;;22.00;1.40;;;;;;;;;;5117817;27;20107;-61
2021/03/19 08:41:06;;;;;;;0.85;0.52;;;;;;;;;;5128845;27;20459;-61
2021/03/19 08:43:59;;;;;;;0.70;0.60;;;;;;;;;;5127073;27;20078;-72
2021/03/19 08:46:40;;;;;;;2.78;0.93;;;;;;;;;;5115306;27;20035;-69
2021/03/19 08:49:12;;;;;;;8.40;1.10;;;;;;;;;;5126662;27;20062;-70
2021/03/19 08:51:42;;;;;;;1.52;0.75;;;;;;;;;;5120607;27;20108;-72
2021/03/19 08:54:15;;;;;;;9.50;1.30;;;;;;;;;;5115702;27;20034;-65
2021/03/19 08:56:46;;;;;;;2.60;0.55;;;;;;;;;;5126688;27;20396;-66
2021/03/19 08:59:32;;;;;;;3.90;2.03;;;;;;;;;;5095310;28;20079;-65
2021/03/19 09:01:59;;;;;;;4.38;0.60;;;;;;;;;;5081002;28;20490;-61
2021/03/19 09:04:48;;;;;;;2.38;0.85;;;;;;;;;;5086309;28;20028;-70
2021/03/19 09:07:23;;;;;;;4.93;0.50;;;;;;;;;;5013763;28;20038;-65
2021/03/19 09:09:50;;;;;;;4.28;0.98;;;;;;;;;;5043361;28;20418;-65
2021/03/19 09:12:18;;;;;;;0.40;0.40;;;;;;;;;;5022142;28;20116;-70
2021/03/19 09:15:04;;;;;;;2.47;0.32;;;;;;;;;;5021892;28;20033;-68
2021/03/19 09:17:51;;;;;;;12.18;0.90;;;;;;;;;;5026089;28;20061;-67
2021/03/19 09:20:23;;;;;;;0.65;0.47;;;;;;;;;;5023671;28;20073;-70
2021/03/19 09:23:02;;;;;;;2.45;0.73;;;;;;;;;;5031674;28;20036;-62
2021/03/19 09:25:36;;;;;;;1.85;0.63;;;;;;;;;;5035245;28;20116;-67
2021/03/19 09:28:13;;;;;;;0.30;0.30;;;;;;;;;;5024202;28;20034;-60
2021/03/19 09:30:39;;;;;;;5.70;0.68;;;;;;;;;;5024559;28;20037;-59
2021/03/19 09:33:10;;;;;;;1.25;0.30;;;;;;;;;;5024526;28;20033;-60
2021/03/19 09:35:36;;;;;;;0.35;0.35;;;;;;;;;;5021530;28;20045;-60
2021/03/19 09:38:04;;;;;;;1.38;0.20;;;;;;;;;;5020969;28;20061;-60
2021/03/19 09:40:43;;;;;;;2.35;0.70;;;;;;;;;;5020576;28;20140;-60
2021/03/19 09:43:30;;;;;;;5.63;0.57;;;;;;;;;;5023734;28;20044;-60
2021/03/19 09:46:03;;;;;;;0.10;0.10;;;;;;;;;;5062779;28;20064;-60
2021/03/19 09:48:31;;;;;;;0.10;0.10;;;;;;;;;;5072100;28;20501;-60
2021/03/19 09:50:59;;;;;;;1.30;0.45;;;;;;;;;;5085947;28;20497;-59
2021/03/19 09:53:31;;;;;;;2.05;0.70;;;;;;;;;;5083947;28;20115;-60
2021/03/19 09:55:58;;;;;;;4.57;1.10;;;;;;;;;;5083949;28;20024;-59
2021/03/19 09:58:25;;;;;;;0.30;0.30;;;;;;;;;;5091634;28;20515;-60
2021/03/19 10:00:53;;;;;;;5.05;1.40;;;;;;;;;;5128685;28;20056;-60
2021/03/19 10:03:19;;;;;;;1.45;0.55;;;;;;;;;;5127976;28;20040;-60
2021/03/19 10:05:46;;;;;;;5.30;1.15;;;;;;;;;;5129515;28;20050;-60
2021/03/19 10:08:23;;;;;;;1.08;0.45;;;;;;;;;;5129490;28;20050;-60
2021/03/19 10:10:49;;;;;;;4.35;0.80;;;;;;;;;;5128844;28;20076;-59
2021/03/19 10:13:24;;;;;;;2.15;0.60;;;;;;;;;;5128274;28;20374;-60
2021/03/19 10:15:52;;;;;;;7.03;1.23;;;;;;;;;;5128729;28;20153;-60
2021/03/19 10:18:25;;;;;;;0.95;0.55;;;;;;;;;;5127627;28;20042;-60
2021/03/19 10:20:54;;;;;;;0.88;0.52;;;;;;;;;;5104167;28;20107;-60
2021/03/19 10:23:24;;;;;;;1.27;0.50;;;;;;;;;;5115482;27;20019;-60
2021/03/19 10:25:52;;;;;;;2.10;0.57;;;;;;;;;;5123600;28;20373;-65
2021/03/19 10:28:18;;;;;;;4.43;3.35;;;;;;;;;;5127841;28;20096;-60
2021/03/19 10:30:55;;;;;;;2.95;0.75;;;;;;;;;;5128992;28;20445;-57
2021/03/19 10:33:26;;;;;;;1.15;0.77;;;;;;;;;;5125345;28;20035;-58
2021/03/19 10:35:52;;;;;;;4.55;0.80;;;;;;;;;;5128802;27;20023;-62
2021/03/19 10:38:24;;;;;;;0.60;0.40;;;;;;;;;;5113850;27;20023;-60
2021/03/19 10:41:13;;;;;;;5.40;0.65;;;;;;;;;;5115212;27;20499;-60
2021/03/19 10:43:49;;;;;;;3.03;0.68;;;;;;;;;;5132357;27;20038;-60
2021/03/19 10:46:18;;;;;;;3.45;0.40;;;;;;;;;;5133193;27;20480;-59
2021/03/19 10:49:06;;;;;;;0.95;0.30;;;;;;;;;;5133108;27;20060;-60
2021/03/19 10:51:38;;;;;;;0.20;0.20;;;;;;;;;;5132646;27;20023;-60
2021/03/19 10:54:07;;;;;;;2.30;0.75;;;;;;;;;;5133270;27;20440;-59
2021/03/19 10:56:33;;;;;;;4.18;0.40;;;;;;;;;;5128547;27;20485;-60
2021/03/19 10:59:17;;;;;;;0.90;0.90;;;;;;;;;;5129504;27;20111;-59
2021/03/19 11:01:45;;;;;;;1.80;0.40;;;;;;;;;;5126068;27;20046;-60
2021/03/19 11:04:33;;;;;;;1.00;0.40;;;;;;;;;;5111821;27;20495;-59
2021/03/19 11:07:00;;;;;;;2.20;0.50;;;;;;;;;;5132372;27;20032;-60
2021/03/19 11:09:27;;;;;;;0.73;0.47;;;;;;;;;;5131111;27;20484;-60
2021/03/19 11:11:58;;;;;;;0.63;0.40;;;;;;;;;;5133057;27;20027;-60
2021/03/19 11:14:29;;;;;;;4.63;3.67;;;;;;;;;;5131880;27;20430;-60
2021/03/19 11:16:57;;;;;;;3.97;0.45;;;;;;;;;;5114587;27;20030;-60
2021/03/19 11:19:25;;;;;;;1.17;0.30;;;;;;;;;;5133262;27;20491;-61
2021/03/19 11:22:09;;;;;;;0.40;0.30;;;;;;;;;;5132111;27;20026;-60
2021/03/19 11:24:38;;;;;;;2.47;0.60;;;;;;;;;;5132109;27;20391;-60
2021/03/19 11:27:22;;;;;;;1.45;0.55;;;;;;;;;;5131423;27;20060;-59
2021/03/19 11:29:49;;;;;;;2.33;0.45;;;;;;;;;;5132121;27;20423;-60
2021/03/19 11:32:15;;;;;;;0.10;0.10;;;;;;;;;;5132040;27;20023;-60
2021/03/19 11:34:46;;;;;;;0.90;0.40;;;;;;;;;;5129429;27;20030;-59
2021/03/19 11:37:22;;;;;;;1.25;0.73;;;;;;;;;;5132244;27;20027;-60
2021/03/19 11:40:08;;;;;;;2.80;0.35;;;;;;;;;;5112039;27;20030;-59
2021/03/19 11:42:36;;;;;;;0.52;0.20;;;;;;;;;;5132408;27;20448;-59
2021/03/19 11:45:10;;;;;;;0.10;0.10;;;;;;;;;;5133080;27;20027;-60
2021/03/19 11:47:38;;;;;;;0.25;0.25;;;;;;;;;;5132865;27;20559;-60
2021/03/19 11:50:25;;;;;;;1.52;0.50;;;;;;;;;;5131279;27;20035;-60
2021/03/19 11:52:53;;;;;;;12.82;0.47;;;;;;;;;;5130101;27;20034;-60
2021/03/19 11:55:21;;;;;;;0.43;0.43;;;;;;;;;;5131762;27;20027;-59
2021/03/19 11:57:48;;;;;;;0.22;0.22;;;;;;;;;;5129316;27;20503;-60
2021/03/19 12:00:18;;;;;;;0.57;0.43;;;;;;;;;;5130682;27;20126;-59
2021/03/19 12:02:45;;;;;;;0.25;0.25;;;;;;;;;;5132178;27;20027;-60
2021/03/19 12:05:12;;;;;;;0.10;0.10;;;;;;;;;;5129209;27;20074;-59
2021/03/19 12:07:39;;;;;;;0.65;0.22;;;;;;;;;;5130601;27;20438;-59
2021/03/19 12:10:06;;;;;;;0.10;0.10;;;;;;;;;;5129465;27;20043;-59
2021/03/19 12:12:32;;;;;;;0.10;0.10;;;;;;;;;;5130143;27;20501;-59
2021/03/19 12:14:58;;;;;;;1.00;0.30;;;;;;;;;;5131453;27;20034;-60
2021/03/19 12:17:25;;;;;;;0.10;0.10;;;;;;;;;;5130874;27;20462;-60
2021/03/19 12:19:51;;;;;;;5.28;1.70;;;;;;;;;;5129694;27;20031;-59
2021/03/19 12:22:18;;;;;;;0.10;0.10;;;;;;;;;;5130480;27;20058;-60
2021/03/19 12:24:44;;;;;;;4.95;0.52;;;;;;;;;;5112366;27;20034;-60
2021/03/19 12:27:12;;;;;;;1.15;0.30;;;;;;;;;;5131010;27;20504;-60
2021/03/19 12:29:38;;;;;;;0.10;0.10;;;;;;;;;;5131963;27;20035;-60
2021/03/19 12:32:05;;;;;;;6.57;1.70;;;;;;;;;;5130755;27;20030;-60
2021/03/19 12:34:31;;;;;;;0.38;0.38;;;;;;;;;;5127622;27;20024;-61
2021/03/19 12:36:57;;;;;;;0.80;0.65;;;;;;;;;;5128140;27;20773;-60
2021/03/19 12:39:23;;;;;;;0.30;0.30;;;;;;;;;;5129863;27;20057;-60
2021/03/19 12:41:49;;;;;;;1.27;0.63;;;;;;;;;;5129172;27;20051;-60
2021/03/19 12:44:16;;;;;;;5.10;0.40;;;;;;;;;;5130983;27;20034;-60
2021/03/19 12:46:42;;;;;;;4.82;0.50;;;;;;;;;;5130213;27;20425;-60
2021/03/19 12:49:09;;;;;;;2.08;1.10;;;;;;;;;;5130716;27;20110;-60
2021/03/19 12:51:35;;;;;;;5.57;0.60;;;;;;;;;;5130546;27;20024;-60
2021/03/19 12:54:01;;;;;;;1.05;0.57;;;;;;;;;;5131756;27;20396;-60
2021/03/19 12:56:28;;;;;;;0.38;0.38;;;;;;;;;;5095483;27;20691;-60
2021/03/19 12:58:54;;;;;;;4.15;0.50;;;;;;;;;;5130260;27;20092;-60
2021/03/19 13:01:20;;;;;;;0.60;0.52;;;;;;;;;;5112203;27;20067;-60
2021/03/19 13:03:48;;;;;;;0.73;0.73;;;;;;;;;;5130109;27;20512;-60
2021/03/19 13:06:16;;;;;;;2.45;0.50;;;;;;;;;;5130418;27;20401;-60
2021/03/19 13:08:42;;;;;;;11.35;1.02;;;;;;;;;;5113586;27;20039;-59
2021/03/19 13:11:09;;;;;;;3.47;0.95;;;;;;;;;;5114328;27;20127;-60
2021/03/19 13:13:35;;;;;;;3.63;0.65;;;;;;;;;;5129102;27;20027;-60
2021/03/19 13:16:01;;;;;;;1.95;0.60;;;;;;;;;;5130076;27;20019;-60
2021/03/19 13:18:27;;;;;;;2.05;0.60;;;;;;;;;;5128774;27;20483;-60
2021/03/19 13:20:53;;;;;;;1.40;0.57;;;;;;;;;;5128922;27;20027;-60
2021/03/19 13:23:19;;;;;;;0.60;0.43;;;;;;;;;;5128427;27;20019;-60
2021/03/19 13:25:46;;;;;;;3.85;1.13;;;;;;;;;;5125393;27;20039;-60
2021/03/19 13:28:16;;;;;;;4.95;0.98;;;;;;;;;;5135588;27;20480;-60
2021/03/19 13:30:43;;;;;;;1.98;0.93;;;;;;;;;;5129506;27;20041;-60
2021/03/19 13:33:10;;;;;;;0.30;0.28;;;;;;;;;;5132086;27;20073;-60
2021/03/19 13:35:40;;;;;;;2.17;1.05;;;;;;;;;;5128707;27;20023;-60
2021/03/19 13:38:10;;;;;;;2.20;0.75;;;;;;;;;;5109923;28;20027;-60
2021/03/19 13:40:36;;;;;;;8.27;0.80;;;;;;;;;;5127906;27;20032;-60
2021/03/19 13:43:02;;;;;;;7.63;0.77;;;;;;;;;;5129972;27;20019;-60
2021/03/19 13:45:30;;;;;;;4.40;1.02;;;;;;;;;;5129158;27;20055;-60
2021/03/19 13:47:56;;;;;;;4.75;0.95;;;;;;;;;;5129883;28;20042;-60
2021/03/19 13:50:23;;;;;;;3.38;0.80;;;;;;;;;;5132572;27;20023;-60
2021/03/19 13:52:49;;;;;;;3.35;1.05;;;;;;;;;;5128500;27;20020;-60
2021/03/19 13:55:16;;;;;;;1.90;1.60;;;;;;;;;;5129485;28;20023;-60
2021/03/19 13:57:49;;;;;;;0.20;0.20;;;;;;;;;;5128898;27;20054;-60
2021/03/19 14:00:18;;;;;;;3.70;0.80;;;;;;;;;;5106954;28;20069;-60
2021/03/19 14:02:45;;;;;;;2.50;0.52;;;;;;;;;;5128261;27;20027;-61
2021/03/19 14:05:11;;;;;;;1.30;0.57;;;;;;;;;;5124555;28;20481;-60
2021/03/19 14:07:37;;;;;;;4.30;0.47;;;;;;;;;;5124805;28;20023;-60
2021/03/19 14:10:04;;;;;;;3.45;1.48;;;;;;;;;;5127550;27;20130;-60
2021/03/19 14:12:30;;;;;;;1.58;0.30;;;;;;;;;;5129865;27;20076;-60
2021/03/19 14:14:57;;;;;;;2.83;1.48;;;;;;;;;;5131182;27;20038;-60
2021/03/19 14:17:23;;;;;;;0.88;0.50;;;;;;;;;;5131071;27;20038;-60
2021/03/19 14:19:49;;;;;;;0.20;0.20;;;;;;;;;;5128649;27;20388;-60
2021/03/19 14:22:18;;;;;;;3.10;0.77;;;;;;;;;;5128789;27;20015;-60
2021/03/19 14:24:45;;;;;;;17.02;1.20;;;;;;;;;;5130671;27;20035;-60
2021/03/19 14:27:11;;;;;;;0.50;0.45;;;;;;;;;;5130325;27;20030;-60
2021/03/19 14:29:37;;;;;;;4.03;1.50;;;;;;;;;;5129602;27;20146;-60
2021/03/19 14:32:04;;;;;;;0.30;0.25;;;;;;;;;;5127898;27;20054;-61
2021/03/19 14:34:30;;;;;;;5.80;1.00;;;;;;;;;;5128559;27;20054;-61
2021/03/19 14:37:00;;;;;;;11.32;1.40;;;;;;;;;;5130443;27;20046;-60
2021/03/19 14:39:26;;;;;;;6.25;0.73;;;;;;;;;;5110884;27;20126;-60
2021/03/19 14:41:52;;;;;;;10.35;1.35;;;;;;;;;;5130114;27;20027;-61
2021/03/19 14:44:19;;;;;;;8.18;1.10;;;;;;;;;;5112763;27;20031;-60
2021/03/19 14:46:45;;;;;;;3.90;1.00;;;;;;;;;;5131061;27;20393;-60
2021/03/19 14:49:11;;;;;;;10.20;2.30;;;;;;;;;;5131706;27;20106;-61
2021/03/19 14:51:37;;;;;;;3.88;1.70;;;;;;;;;;5130953;27;20082;-60
2021/03/19 14:54:04;;;;;;;4.38;1.23;;;;;;;;;;5133067;27;20034;-60
2021/03/19 14:56:30;;;;;;;7.80;0.85;;;;;;;;;;5130710;27;20040;-61
2021/03/19 14:58:56;;;;;;;6.68;1.05;;;;;;;;;;5128947;27;20046;-61
2021/03/19 15:01:22;;;;;;;1.85;0.63;;;;;;;;;;5130094;27;20031;-61
2021/03/19 15:03:48;;;;;;;3.30;0.50;;;;;;;;;;5131591;27;20157;-60
2021/03/19 15:06:14;;;;;;;0.20;0.20;;;;;;;;;;5112311;27;20098;-61
2021/03/19 15:08:40;;;;;;;17.80;2.03;;;;;;;;;;5130621;27;20054;-59
2021/03/19 15:11:07;;;;;;;4.82;1.85;;;;;;;;;;5129522;27;20160;-60
2021/03/19 15:13:33;;;;;;;5.88;0.80;;;;;;;;;;5130128;27;20514;-60
2021/03/19 15:15:59;;;;;;;6.60;2.25;;;;;;;;;;5131513;27;20023;-60
2021/03/19 15:18:28;;;;;;;9.40;2.10;;;;;;;;;;5130333;27;20016;-60
2021/03/19 15:20:55;;;;;;;4.15;0.57;;;;;;;;;;5129743;27;20027;-61
2021/03/19 15:23:29;;;;;;;0.45;0.38;;;;;;;;;;5129746;27;20027;-60
2021/03/19 15:26:00;;;;;;;1.55;0.40;;;;;;;;;;5127647;27;20023;-60
2021/03/19 15:28:28;;;;;;;1.05;0.95;;;;;;;;;;5130077;27;20039;-61
2021/03/19 15:30:54;;;;;;;2.55;0.57;;;;;;;;;;5128529;27;20090;-60
2021/03/19 15:33:20;;;;;;;0.65;0.52;;;;;;;;;;5132444;27;20023;-60
2021/03/19 15:35:47;;;;;;;2.17;0.40;;;;;;;;;;5131141;27;20112;-60
2021/03/19 15:38:14;;;;;;;1.95;1.42;;;;;;;;;;5126486;27;20058;-60
2021/03/19 15:40:43;;;;;;;6.05;1.33;;;;;;;;;;5131994;27;20015;-60
2021/03/19 15:43:09;;;;;;;3.88;1.73;;;;;;;;;;5130817;27;20037;-60
2021/03/19 15:45:36;;;;;;;3.75;1.50;;;;;;;;;;5128709;27;20026;-60
2021/03/19 15:48:02;;;;;;;6.47;1.73;;;;;;;;;;5132896;27;20034;-60
2021/03/19 15:50:28;;;;;;;12.05;2.22;;;;;;;;;;5130297;27;20609;-60
2021/03/19 15:52:55;;;;;;;7.30;1.35;;;;;;;;;;5130807;27;20059;-60
2021/03/19 15:55:21;;;;;;;3.25;0.77;;;;;;;;;;5130868;27;20019;-60
2021/03/19 15:57:48;;;;;;;5.68;1.50;;;;;;;;;;5130649;27;20007;-60
2021/03/19 16:00:15;;;;;;;3.35;1.40;;;;;;;;;;5131864;27;20062;-60
2021/03/19 16:02:41;;;;;;;4.88;1.13;;;;;;;;;;5119344;27;20117;-60
2021/03/19 16:05:08;;;;;;;4.90;0.65;;;;;;;;;;5124546;27;20481;-60
2021/03/19 16:07:34;;;;;;;9.32;1.98;;;;;;;;;;5127321;27;20053;-60
2021/03/19 16:10:01;;;;;;;6.22;1.10;;;;;;;;;;5123076;27;20039;-60
2021/03/19 16:12:27;;;;;;;12.27;2.22;;;;;;;;;;5122533;27;20034;-59
2021/03/19 16:14:53;;;;;;;0.95;0.70;;;;;;;;;;5124052;27;20031;-60
2021/03/19 16:17:20;;;;;;;4.57;0.75;;;;;;;;;;5123511;27;20049;-60
2021/03/19 16:19:46;;;;;;;2.85;1.33;;;;;;;;;;5124112;27;20438;-60
2021/03/19 16:22:12;;;;;;;2.10;0.93;;;;;;;;;;5124440;27;20031;-61
2021/03/19 16:24:38;;;;;;;1.73;0.95;;;;;;;;;;5127358;27;20054;-60
2021/03/19 16:27:04;;;;;;;7.85;0.93;;;;;;;;;;5128123;27;20034;-60
2021/03/19 16:29:30;;;;;;;2.50;1.40;;;;;;;;;;5116658;27;20071;-60
2021/03/19 16:31:57;;;;;;;2.15;0.50;;;;;;;;;;5121820;27;20507;-60
2021/03/19 16:34:23;;;;;;;7.57;0.52;;;;;;;;;;5115772;27;20072;-60
2021/03/19 16:36:49;;;;;;;6.13;1.55;;;;;;;;;;5123774;27;20485;-60
2021/03/19 16:39:15;;;;;;;14.50;1.50;;;;;;;;;;5117298;27;20480;-60
2021/03/19 16:41:41;;;;;;;8.32;1.40;;;;;;;;;;5126150;27;20081;-60
2021/03/19 16:44:07;;;;;;;1.40;1.30;;;;;;;;;;5122912;27;20497;-61
2021/03/19 16:46:34;;;;;;;1.25;0.40;;;;;;;;;;5116924;27;20019;-60
2021/03/19 16:49:00;;;;;;;6.32;1.45;;;;;;;;;;5093024;27;20416;-60
2021/03/19 16:51:28;;;;;;;3.25;1.00;;;;;;;;;;5117972;27;20035;-60
2021/03/19 16:53:55;;;;;;;8.23;1.00;;;;;;;;;;5127363;27;20594;-60
2021/03/19 16:56:21;;;;;;;1.23;0.63;;;;;;;;;;5119912;27;20027;-61
2021/03/19 16:58:48;;;;;;;6.00;1.27;;;;;;;;;;5119614;27;20036;-60
2021/03/19 17:01:19;;;;;;;2.20;0.95;;;;;;;;;;5116769;27;20083;-60
2021/03/19 17:03:46;;;;;;;5.65;1.23;;;;;;;;;;5106179;27;20020;-60
2021/03/19 17:06:12;;;;;;;0.20;0.20;;;;;;;;;;5096187;27;20507;-60
2021/03/19 17:08:38;;;;;;;3.38;0.80;;;;;;;;;;5121017;27;20071;-60
2021/03/19 17:11:05;;;;;;;3.75;1.17;;;;;;;;;;5119824;27;20573;-60
2021/03/19 17:13:32;;;;;;;2.83;0.63;;;;;;;;;;5077458;27;20382;-60
2021/03/19 17:15:58;;;;;;;2.20;0.85;;;;;;;;;;5124906;27;20024;-61
2021/03/19 17:18:25;;;;;;;1.83;1.10;;;;;;;;;;5108563;27;20054;-60
2021/03/19 17:20:52;;;;;;;1.67;1.05;;;;;;;;;;5126395;27;20068;-61
2021/03/19 17:23:18;;;;;;;1.55;0.52;;;;;;;;;;5118577;27;20069;-61
2021/03/19 17:25:46;;;;;;;4.20;1.55;;;;;;;;;;5116175;27;20058;-60
2021/03/19 17:28:13;;;;;;;13.05;0.63;;;;;;;;;;5125354;27;20073;-60
2021/03/19 17:30:41;;;;;;;5.95;0.98;;;;;;;;;;5126396;27;20551;-60
2021/03/19 17:33:07;;;;;;;1.45;1.30;;;;;;;;;;5128972;27;20106;-61
2021/03/19 17:35:35;;;;;;;9.93;2.47;;;;;;;;;;5127376;27;20034;-60
2021/03/19 17:38:01;;;;;;;3.63;0.20;;;;;;;;;;5128791;27;20023;-60
2021/03/19 17:40:27;;;;;;;12.27;3.17;;;;;;;;;;5126657;27;20023;-61
2021/03/19 17:42:54;;;;;;;11.50;0.82;;;;;;;;;;5128917;27;20058;-60
2021/03/19 17:45:26;;;;;;;0.50;0.38;;;;;;;;;;5127629;27;20115;-61
2021/03/19 17:47:52;;;;;;;1.65;0.73;;;;;;;;;;5126443;27;20404;-60
2021/03/19 17:50:20;;;;;;;2.75;0.90;;;;;;;;;;5127187;28;20088;-60
2021/03/19 17:52:47;;;;;;;2.15;0.65;;;;;;;;;;5127064;28;20023;-60
2021/03/19 17:55:13;;;;;;;5.75;1.30;;;;;;;;;;5129052;28;20035;-60
2021/03/19 17:57:39;;;;;;;6.78;1.17;;;;;;;;;;5127997;28;20019;-61
2021/03/19 18:00:06;;;;;;;5.32;2.75;;;;;;;;;;5128247;28;20079;-60
2021/03/19 18:02:32;;;;;;;8.20;1.20;;;;;;;;;;5129890;28;20023;-61
2021/03/19 18:04:58;;;;;;;0.63;0.63;;;;;;;;;;5128970;28;20118;-60
2021/03/19 18:07:25;;;;;;;2.10;1.15;;;;;;;;;;5129732;28;20026;-60
2021/03/19 18:09:51;;;;;;;4.82;1.00;;;;;;;;;;5129120;28;20034;-60
2021/03/19 18:12:17;;;;;;;10.93;1.40;;;;;;;;;;5129880;28;20512;-60
2021/03/19 18:14:43;;;;;;;4.85;1.77;;;;;;;;;;5112477;28;20062;-60
2021/03/19 18:17:09;;;;;;;11.55;0.65;;;;;;;;;;5128897;28;20020;-60
2021/03/19 18:19:35;;;;;;;22.63;1.33;;;;;;;;;;5128079;28;20378;-60
2021/03/19 18:22:01;;;;;;;5.60;0.82;;;;;;;;;;5128370;28;20027;-60
2021/03/19 18:24:30;;;;;;;7.93;1.65;;;;;;;;;;5130039;28;20445;-60
2021/03/19 18:26:57;;;;;;;2.63;1.00;;;;;;;;;;5130764;28;20400;-60
2021/03/19 18:29:23;;;;;;;0.50;0.50;;;;;;;;;;5128329;28;20393;-60
2021/03/19 18:31:52;;;;;;;0.68;0.63;;;;;;;;;;5128378;28;20049;-60
2021/03/19 18:34:18;;;;;;;2.53;1.73;;;;;;;;;;5128007;28;20139;-61
2021/03/19 18:36:45;;;;;;;1.75;0.95;;;;;;;;;;5128157;28;20101;-60
2021/03/19 18:39:11;;;;;;;0.63;0.63;;;;;;;;;;5131395;28;20058;-60
2021/03/19 18:41:37;;;;;;;1.15;1.15;;;;;;;;;;5128535;28;20079;-60
2021/03/19 18:44:04;;;;;;;1.50;1.40;;;;;;;;;;5128288;28;20023;-60
2021/03/19 18:46:30;;;;;;;0.65;0.65;;;;;;;;;;5127604;28;20481;-60
2021/03/19 18:48:56;;;;;;;0.35;0.30;;;;;;;;;;5127313;28;20028;-60
2021/03/19 18:51:23;;;;;;;2.45;1.30;;;;;;;;;;5130612;28;20019;-60
2021/03/19 18:53:49;;;;;;;0.20;0.20;;;;;;;;;;5128600;28;20023;-61
2021/03/19 18:56:15;;;;;;;6.75;5.07;;;;;;;;;;5129088;27;20031;-60
2021/03/19 18:58:42;;;;;;;0.98;0.90;;;;;;;;;;5132014;27;20442;-60
2021/03/19 19:01:08;;;;;;;3.00;0.77;;;;;;;;;;5130794;27;20394;-61
2021/03/19 19:03:35;;;;;;;0.40;0.40;;;;;;;;;;5126101;27;20019;-61
2021/03/19 19:06:03;;;;;;;0.20;0.20;;;;;;;;;;5129440;27;20038;-63
2021/03/19 19:08:29;;;;;;;0.25;0.25;;;;;;;;;;5120752;27;20528;-64
2021/03/19 19:10:57;;;;;;;0.40;0.40;;;;;;;;;;5122873;27;20024;-60
2021/03/19 19:13:23;;;;;;;0.20;0.20;;;;;;;;;;5123891;27;20023;-61
2021/03/19 19:15:50;;;;;;;0.20;0.20;;;;;;;;;;5103213;27;20037;-61
2021/03/19 19:18:16;;;;;;;0.20;0.20;;;;;;;;;;5111547;27;20035;-60
2021/03/19 19:20:45;;;;;;;6.22;1.13;;;;;;;;;;5126900;27;20117;-60
2021/03/19 19:23:12;;;;;;;0.30;0.30;;;;;;;;;;5122908;27;20023;-61
2021/03/19 19:25:39;;;;;;;0.20;0.20;;;;;;;;;;5123263;27;20031;-61
2021/03/19 19:28:10;;;;;;;3.50;0.88;;;;;;;;;;5118751;27;20072;-61
2021/03/19 19:30:37;;;;;;;0.75;0.50;;;;;;;;;;5121333;27;20496;-61
2021/03/19 19:33:04;;;;;;;0.20;0.20;;;;;;;;;;5123697;27;20045;-60
2021/03/19 19:35:31;;;;;;;7.78;0.52;;;;;;;;;;5123005;27;20031;-60
2021/03/19 19:37:59;;;;;;;0.20;0.20;;;;;;;;;;5122927;27;20022;-60
2021/03/19 19:40:33;;;;;;;0.20;0.20;;;;;;;;;;5114842;27;20038;-60
2021/03/19 19:42:59;;;;;;;0.30;0.30;;;;;;;;;;5123110;27;20031;-61
2021/03/19 19:45:26;;;;;;;0.15;0.15;;;;;;;;;;5126843;27;20431;-61
2021/03/19 19:47:53;;;;;;;0.20;0.20;;;;;;;;;;5126906;27;20048;-61
2021/03/19 19:50:21;;;;;;;1.30;0.60;;;;;;;;;;5121602;27;20035;-61
2021/03/19 19:52:47;;;;;;;0.22;0.22;;;;;;;;;;5126182;27;20027;-60
2021/03/19 19:55:14;;;;;;;0.20;0.20;;;;;;;;;;5127381;27;20031;-61
2021/03/19 19:57:40;;;;;;;1.05;0.52;;;;;;;;;;5100590;27;20024;-61
2021/03/19 20:00:12;;;;;;;1.17;1.10;;;;;;;;;;5123071;27;20055;-60
2021/03/19 20:02:41;;;;;;;0.20;0.20;;;;;;;;;;5121163;27;20031;-60
2021/03/19 20:05:08;;;;;;;0.13;0.13;;;;;;;;;;5120172;27;20059;-60
2021/03/19 20:07:34;;;;;;;0.50;0.50;;;;;;;;;;5120385;27;20069;-61
2021/03/19 20:10:00;;;;;;;2.28;1.05;;;;;;;;;;5126492;27;20516;-60
2021/03/19 20:12:26;;;;;;;3.30;1.33;;;;;;;;;;5126301;27;20472;-61
2021/03/19 20:14:52;;;;;;;0.50;0.50;;;;;;;;;;5126355;27;20061;-61
2021/03/19 20:17:18;;;;;;;0.40;0.40;;;;;;;;;;5124900;27;20569;-60
2021/03/19 20:19:45;;;;;;;1.48;1.08;;;;;;;;;;5125122;27;20019;-60
2021/03/19 20:22:11;;;;;;;0.73;0.73;;;;;;;;;;5126305;27;20417;-61
2021/03/19 20:24:37;;;;;;;1.05;0.43;;;;;;;;;;5121619;27;20540;-60
2021/03/19 20:27:04;;;;;;;0.35;0.35;;;;;;;;;;5110229;27;20409;-60
2021/03/19 20:29:30;;;;;;;0.50;0.50;;;;;;;;;;5110523;27;20641;-61
2021/03/19 20:31:57;;;;;;;0.30;0.30;;;;;;;;;;5116957;27;20024;-60
2021/03/19 20:34:24;;;;;;;0.52;0.52;;;;;;;;;;5114716;27;20122;-61
2021/03/19 20:36:52;;;;;;;0.20;0.20;;;;;;;;;;5110217;27;20088;-60
2021/03/19 20:39:25;;;;;;;0.28;0.28;;;;;;;;;;5107926;27;20058;-61
2021/03/19 20:41:52;;;;;;;0.10;0.10;;;;;;;;;;5092314;28;20151;-61
2021/03/19 20:44:19;;;;;;;0.85;0.85;;;;;;;;;;5111533;27;20019;-60
2021/03/19 20:46:45;;;;;;;0.20;0.20;;;;;;;;;;5111967;27;20035;-61
2021/03/19 20:49:15;;;;;;;0.30;0.30;;;;;;;;;;5109643;27;20039;-61
2021/03/19 20:51:42;;;;;;;0.28;0.28;;;;;;;;;;5109220;27;20024;-60
2021/03/19 20:54:08;;;;;;;0.20;0.20;;;;;;;;;;5075344;28;20046;-61
2021/03/19 20:56:37;;;;;;;0.20;0.20;;;;;;;;;;5119440;27;20373;-62